Time;durP1;ratioP1;P1;durP2;ratioP2;P2;SDS_P1;SDS_P2;PMS_P1;PMS_P2;Temp;Humidity;BMP_temperature;BMP_pressure;BME280_temperature;BME280_humidity;BME280_pressure;Samples;Min_cycle;Max_cycle;Signal;HPM_P1;HPM_P2
2022/05/10 00:00:54;;;;;;;11.07;9.85;;;;;;;;;;5012698;28;20054;-68
2022/05/10 00:03:22;;;;;;;11.25;10.07;;;;;;;;;;4995587;28;20049;-68
2022/05/10 00:05:49;;;;;;;11.43;10.32;;;;;;;;;;5011636;28;20103;-67
2022/05/10 00:08:17;;;;;;;11.60;10.50;;;;;;;;;;5012656;28;20046;-67
2022/05/10 00:10:44;;;;;;;13.80;11.02;;;;;;;;;;5000015;28;20497;-67
2022/05/10 00:13:11;;;;;;;12.10;10.82;;;;;;;;;;4993112;28;20073;-67
2022/05/10 00:15:38;;;;;;;12.50;9.55;;;;;;;;;;4992987;28;20128;-67
2022/05/10 00:18:05;;;;;;;12.60;10.48;;;;;;;;;;4975887;28;20047;-68
2022/05/10 00:20:31;;;;;;;12.50;11.25;;;;;;;;;;4992701;28;20046;-67
2022/05/10 00:22:58;;;;;;;11.18;10.00;;;;;;;;;;4991814;28;20101;-67
2022/05/10 00:25:27;;;;;;;13.95;10.20;;;;;;;;;;4992478;28;20054;-67
2022/05/10 00:27:54;;;;;;;12.43;10.13;;;;;;;;;;4992688;28;20421;-67
2022/05/10 00:30:22;;;;;;;11.80;10.70;;;;;;;;;;4993137;28;20193;-67
2022/05/10 00:32:48;;;;;;;11.20;10.20;;;;;;;;;;4992367;28;20065;-68
2022/05/10 00:35:24;;;;;;;11.88;10.70;;;;;;;;;;5007132;28;20102;-67
2022/05/10 00:37:51;;;;;;;12.43;11.13;;;;;;;;;;5011103;28;20049;-67
2022/05/10 00:40:22;;;;;;;11.82;10.68;;;;;;;;;;4995371;28;20057;-67
2022/05/10 00:43:04;;;;;;;11.18;10.05;;;;;;;;;;5012270;28;20054;-67
2022/05/10 00:45:48;;;;;;;11.32;10.23;;;;;;;;;;5011129;28;20108;-67
2022/05/10 00:48:22;;;;;;;12.25;10.88;;;;;;;;;;5011239;28;20050;-67
2022/05/10 00:50:57;;;;;;;12.85;11.60;;;;;;;;;;5000041;28;20046;-67
2022/05/10 00:53:27;;;;;;;12.20;10.95;;;;;;;;;;4975792;28;20046;-67
2022/05/10 00:56:00;;;;;;;12.40;11.07;;;;;;;;;;4975638;28;20105;-67
2022/05/10 00:58:34;;;;;;;12.00;10.80;;;;;;;;;;4992704;28;20042;-67
2022/05/10 01:01:00;;;;;;;12.48;11.27;;;;;;;;;;4990924;28;20054;-67
2022/05/10 01:03:38;;;;;;;12.80;11.57;;;;;;;;;;4974974;28;20054;-67
2022/05/10 01:06:24;;;;;;;15.15;11.45;;;;;;;;;;4975744;28;20104;-67
2022/05/10 01:09:20;;;;;;;14.30;12.80;;;;;;;;;;4984646;28;20060;-67
2022/05/10 01:11:59;;;;;;;13.68;12.50;;;;;;;;;;5010930;28;20058;-67
2022/05/10 01:14:46;;;;;;;15.73;12.35;;;;;;;;;;5010521;28;20551;-67
2022/05/10 01:17:13;;;;;;;13.55;11.85;;;;;;;;;;5015387;28;20050;-67
2022/05/10 01:19:40;;;;;;;13.52;12.23;;;;;;;;;;5001312;28;20046;-67
2022/05/10 01:22:31;;;;;;;14.25;11.90;;;;;;;;;;4978886;28;20050;-67
2022/05/10 01:25:24;;;;;;;13.18;11.98;;;;;;;;;;4996226;28;20049;-67
2022/05/10 01:28:18;;;;;;;14.30;11.43;;;;;;;;;;4994700;28;20051;-67
2022/05/10 01:30:44;;;;;;;12.60;11.30;;;;;;;;;;4975306;28;20517;-66
2022/05/10 01:33:42;;;;;;;12.60;11.07;;;;;;;;;;4975488;28;20050;-67
2022/05/10 01:36:14;;;;;;;12.63;11.32;;;;;;;;;;4971984;28;20051;-67
2022/05/10 01:39:19;;;;;;;13.27;11.88;;;;;;;;;;4988640;28;20041;-67
2022/05/10 01:41:49;;;;;;;13.40;12.10;;;;;;;;;;4982269;28;20046;-67
2022/05/10 01:44:35;;;;;;;14.50;13.00;;;;;;;;;;5015223;28;20055;-67
2022/05/10 01:47:15;;;;;;;13.48;12.15;;;;;;;;;;5014074;28;20053;-67
2022/05/10 01:49:45;;;;;;;15.30;12.80;;;;;;;;;;5000289;28;20053;-67
2022/05/10 01:52:11;;;;;;;14.43;12.93;;;;;;;;;;4985141;28;20385;-67
2022/05/10 01:54:41;;;;;;;14.18;12.68;;;;;;;;;;5014968;28;20049;-67
2022/05/10 01:57:08;;;;;;;14.15;12.35;;;;;;;;;;5015118;28;20116;-67
2022/05/10 01:59:37;;;;;;;14.45;12.95;;;;;;;;;;4987554;28;20109;-67
2022/05/10 02:02:04;;;;;;;14.70;13.15;;;;;;;;;;4995377;28;20050;-67
2022/05/10 02:04:33;;;;;;;13.82;12.52;;;;;;;;;;4994489;28;20108;-67
2022/05/10 02:07:04;;;;;;;14.30;12.90;;;;;;;;;;4995118;28;20096;-67
2022/05/10 02:09:37;;;;;;;13.63;12.32;;;;;;;;;;5004103;28;20054;-67
2022/05/10 02:12:28;;;;;;;13.63;12.25;;;;;;;;;;4997776;28;20050;-67
2022/05/10 02:15:13;;;;;;;14.05;12.40;;;;;;;;;;4978440;28;20062;-67
2022/05/10 02:17:41;;;;;;;12.80;11.60;;;;;;;;;;4992802;28;20061;-67
2022/05/10 02:20:08;;;;;;;13.68;12.38;;;;;;;;;;4981701;28;20480;-67
2022/05/10 02:22:42;;;;;;;13.75;12.40;;;;;;;;;;4973195;28;20662;-67
2022/05/10 02:25:21;;;;;;;14.05;12.00;;;;;;;;;;4957170;28;20051;-67
2022/05/10 02:28:11;;;;;;;14.75;13.25;;;;;;;;;;4972269;28;20050;-67
2022/05/10 02:30:37;;;;;;;14.13;12.70;;;;;;;;;;4963363;28;20054;-67
2022/05/10 02:33:07;;;;;;;14.60;13.23;;;;;;;;;;4957120;28;20082;-67
2022/05/10 02:35:39;;;;;;;14.40;12.90;;;;;;;;;;4973122;28;20434;-67
2022/05/10 02:38:07;;;;;;;14.60;13.07;;;;;;;;;;4973225;28;20050;-67
2022/05/10 02:40:33;;;;;;;14.65;13.25;;;;;;;;;;4957229;28;20050;-67
2022/05/10 02:43:00;;;;;;;14.43;13.02;;;;;;;;;;4972626;28;20051;-67
2022/05/10 02:45:27;;;;;;;16.25;13.73;;;;;;;;;;4964880;28;20054;-67
2022/05/10 02:47:53;;;;;;;15.45;13.38;;;;;;;;;;4993562;28;20050;-67
2022/05/10 02:50:26;;;;;;;15.35;13.85;;;;;;;;;;4994503;28;20493;-67
2022/05/10 02:52:53;;;;;;;14.75;13.40;;;;;;;;;;4994456;28;20058;-67
2022/05/10 02:55:31;;;;;;;15.10;13.63;;;;;;;;;;4994288;28;20054;-67
2022/05/10 02:58:00;;;;;;;14.70;13.13;;;;;;;;;;4994706;28;20050;-67
2022/05/10 03:00:27;;;;;;;15.43;13.50;;;;;;;;;;4989711;28;20049;-67
2022/05/10 03:02:56;;;;;;;14.40;12.77;;;;;;;;;;4996375;28;20050;-67
2022/05/10 03:05:23;;;;;;;17.08;15.25;;;;;;;;;;4996896;28;20312;-67
2022/05/10 03:07:53;;;;;;;14.93;13.48;;;;;;;;;;5013801;28;20054;-67
2022/05/10 03:10:20;;;;;;;16.30;14.30;;;;;;;;;;5013814;28;20492;-67
2022/05/10 03:12:46;;;;;;;16.20;14.63;;;;;;;;;;5013666;28;20523;-68
2022/05/10 03:15:13;;;;;;;15.65;14.15;;;;;;;;;;5013734;28;20061;-67
2022/05/10 03:17:40;;;;;;;16.67;14.18;;;;;;;;;;5013774;28;20052;-67
2022/05/10 03:20:07;;;;;;;15.20;13.68;;;;;;;;;;5013511;28;20088;-67
2022/05/10 03:22:34;;;;;;;17.55;14.90;;;;;;;;;;5013345;28;20136;-67
2022/05/10 03:25:01;;;;;;;17.05;15.23;;;;;;;;;;5037176;22;20054;-67
2022/05/10 03:27:29;;;;;;;17.48;15.65;;;;;;;;;;5013515;28;20045;-67
2022/05/10 03:29:55;;;;;;;17.17;15.05;;;;;;;;;;5021127;28;20050;-67
2022/05/10 03:32:22;;;;;;;15.77;14.27;;;;;;;;;;5033075;28;20064;-67
2022/05/10 03:34:55;;;;;;;17.23;14.95;;;;;;;;;;5041342;28;20415;-67
2022/05/10 03:37:22;;;;;;;15.93;14.32;;;;;;;;;;5052892;28;20057;-67
2022/05/10 03:39:49;;;;;;;15.70;14.20;;;;;;;;;;5044806;28;20045;-67
2022/05/10 03:42:18;;;;;;;16.73;14.98;;;;;;;;;;5033382;28;20519;-67
2022/05/10 03:44:49;;;;;;;16.20;14.30;;;;;;;;;;5046457;28;20481;-67
2022/05/10 03:47:17;;;;;;;16.88;14.77;;;;;;;;;;5031809;28;20049;-67
2022/05/10 03:49:48;;;;;;;16.13;14.43;;;;;;;;;;5031538;28;20049;-67
2022/05/10 03:52:15;;;;;;;16.08;14.48;;;;;;;;;;5031531;28;20054;-67
2022/05/10 03:54:42;;;;;;;17.55;14.68;;;;;;;;;;5032823;28;20061;-67
2022/05/10 03:57:09;;;;;;;15.75;14.23;;;;;;;;;;5031613;28;20049;-67
2022/05/10 03:59:41;;;;;;;15.65;14.13;;;;;;;;;;5031576;28;20049;-67
2022/05/10 04:02:10;;;;;;;17.87;15.90;;;;;;;;;;5032359;28;20090;-66
2022/05/10 04:04:37;;;;;;;16.58;14.55;;;;;;;;;;5031491;28;20359;-66
2022/05/10 04:07:04;;;;;;;16.80;14.63;;;;;;;;;;5031364;28;20057;-67
2022/05/10 04:09:30;;;;;;;17.40;13.98;;;;;;;;;;5015010;28;20280;-67
2022/05/10 04:11:57;;;;;;;16.73;14.90;;;;;;;;;;5032289;28;20053;-67
2022/05/10 04:14:24;;;;;;;16.40;14.77;;;;;;;;;;5032101;28;20060;-67
2022/05/10 04:16:51;;;;;;;16.50;14.90;;;;;;;;;;5031094;28;20060;-67
2022/05/10 04:19:18;;;;;;;16.50;14.60;;;;;;;;;;5032348;28;20119;-67
2022/05/10 04:21:44;;;;;;;19.05;14.77;;;;;;;;;;5030819;28;20053;-67
2022/05/10 04:24:11;;;;;;;16.80;15.00;;;;;;;;;;5030765;28;20172;-67
2022/05/10 04:26:38;;;;;;;14.73;13.32;;;;;;;;;;5032325;28;20061;-67
2022/05/10 04:29:04;;;;;;;16.52;14.90;;;;;;;;;;5032173;28;20041;-67
2022/05/10 04:31:31;;;;;;;15.93;14.40;;;;;;;;;;5030670;28;20081;-67
2022/05/10 04:33:58;;;;;;;15.90;14.30;;;;;;;;;;5032116;28;20060;-67
2022/05/10 04:36:30;;;;;;;16.65;14.95;;;;;;;;;;5031827;28;20049;-67
2022/05/10 04:38:56;;;;;;;16.52;15.00;;;;;;;;;;5030435;28;20037;-67
2022/05/10 04:41:31;;;;;;;16.10;14.60;;;;;;;;;;5031633;28;20136;-67
2022/05/10 04:44:06;;;;;;;16.88;14.70;;;;;;;;;;5030481;28;20477;-67
2022/05/10 04:46:35;;;;;;;15.85;14.35;;;;;;;;;;5030833;28;20451;-67
2022/05/10 04:49:03;;;;;;;17.02;14.85;;;;;;;;;;5030517;28;20051;-67
2022/05/10 04:51:30;;;;;;;16.88;13.98;;;;;;;;;;5030035;28;20045;-67
2022/05/10 04:53:56;;;;;;;15.68;14.15;;;;;;;;;;5031608;28;20052;-67
2022/05/10 04:56:23;;;;;;;16.88;15.18;;;;;;;;;;5031024;28;20087;-67
2022/05/10 04:58:54;;;;;;;15.52;14.05;;;;;;;;;;5024808;28;20045;-68
2022/05/10 05:01:26;;;;;;;16.50;15.00;;;;;;;;;;5036441;28;20060;-67
2022/05/10 05:03:55;;;;;;;15.57;14.02;;;;;;;;;;5051692;28;20049;-67
2022/05/10 05:06:26;;;;;;;16.40;14.65;;;;;;;;;;5050423;28;20443;-67
2022/05/10 05:08:53;;;;;;;15.95;14.25;;;;;;;;;;5049335;28;20095;-67
2022/05/10 05:11:19;;;;;;;16.02;14.60;;;;;;;;;;5050392;28;20055;-67
2022/05/10 05:13:46;;;;;;;16.45;14.35;;;;;;;;;;5026320;28;20052;-67
2022/05/10 05:16:13;;;;;;;17.15;15.30;;;;;;;;;;5035418;28;20049;-66
2022/05/10 05:18:39;;;;;;;18.13;14.90;;;;;;;;;;5037901;28;20091;-66
2022/05/10 05:21:06;;;;;;;16.50;14.77;;;;;;;;;;5033526;28;20786;-66
2022/05/10 05:23:33;;;;;;;15.18;13.60;;;;;;;;;;5029313;28;20049;-66
2022/05/10 05:25:59;;;;;;;17.45;14.23;;;;;;;;;;5035138;28;20049;-66
2022/05/10 05:28:26;;;;;;;18.27;14.55;;;;;;;;;;5039231;28;20150;-65
2022/05/10 05:30:53;;;;;;;19.38;14.10;;;;;;;;;;5048769;28;20049;-65
2022/05/10 05:33:19;;;;;;;15.80;14.27;;;;;;;;;;5043188;28;20056;-66
2022/05/10 05:35:46;;;;;;;20.38;15.30;;;;;;;;;;5029157;28;20057;-66
2022/05/10 05:38:13;;;;;;;16.33;14.65;;;;;;;;;;5029357;28;20057;-66
2022/05/10 05:40:39;;;;;;;18.13;14.27;;;;;;;;;;5029325;28;20049;-66
2022/05/10 05:43:06;;;;;;;17.00;13.93;;;;;;;;;;5042750;28;20407;-65
2022/05/10 05:45:34;;;;;;;16.50;14.60;;;;;;;;;;5012077;28;20496;-66
2022/05/10 05:48:01;;;;;;;21.02;15.23;;;;;;;;;;5029194;28;20520;-66
2022/05/10 05:50:27;;;;;;;19.20;15.40;;;;;;;;;;5029002;28;20056;-66
2022/05/10 05:52:56;;;;;;;15.48;13.73;;;;;;;;;;5031296;28;20084;-66
2022/05/10 05:55:23;;;;;;;17.00;14.40;;;;;;;;;;5048568;28;20053;-66
2022/05/10 05:57:50;;;;;;;16.80;15.15;;;;;;;;;;5043366;28;20041;-66
2022/05/10 06:00:22;;;;;;;14.98;13.43;;;;;;;;;;5035262;28;20037;-66
2022/05/10 06:02:50;;;;;;;17.85;14.45;;;;;;;;;;5031797;28;20389;-66
2022/05/10 06:05:18;;;;;;;17.33;14.48;;;;;;;;;;5051589;28;20077;-66
2022/05/10 06:07:44;;;;;;;15.65;13.65;;;;;;;;;;5051404;28;20414;-66
2022/05/10 06:10:11;;;;;;;15.75;14.07;;;;;;;;;;5052332;28;20048;-66
2022/05/10 06:12:39;;;;;;;14.30;12.90;;;;;;;;;;5045595;28;20133;-67
2022/05/10 06:15:10;;;;;;;16.42;14.70;;;;;;;;;;5007289;28;20504;-67
2022/05/10 06:17:41;;;;;;;16.80;14.95;;;;;;;;;;5027078;28;20505;-68
2022/05/10 06:20:09;;;;;;;16.25;14.63;;;;;;;;;;5028616;28;20069;-69
2022/05/10 06:22:36;;;;;;;15.07;13.57;;;;;;;;;;5025698;28;20107;-72
2022/05/10 06:25:04;;;;;;;15.15;13.50;;;;;;;;;;5010912;28;20053;-69
2022/05/10 06:27:31;;;;;;;16.35;13.82;;;;;;;;;;5009793;28;20053;-66
2022/05/10 06:29:58;;;;;;;16.20;14.50;;;;;;;;;;5019551;28;20049;-66
2022/05/10 06:32:26;;;;;;;15.57;14.05;;;;;;;;;;5031738;28;20128;-66
2022/05/10 06:34:53;;;;;;;14.43;13.10;;;;;;;;;;5021979;28;20128;-66
2022/05/10 06:40:08;;;;;;;14.18;11.80;;;;;;;;;;5020230;28;20060;-66
2022/05/10 06:42:34;;;;;;;16.40;13.98;;;;;;;;;;5022448;28;20077;-64
2022/05/10 06:45:01;;;;;;;14.07;12.50;;;;;;;;;;5023498;28;20057;-64
2022/05/10 06:47:28;;;;;;;13.65;12.23;;;;;;;;;;5019454;28;20120;-64
2022/05/10 06:49:55;;;;;;;14.43;13.05;;;;;;;;;;5018705;28;20048;-64
2022/05/10 06:52:22;;;;;;;17.83;12.52;;;;;;;;;;5018915;28;20054;-65
2022/05/10 06:54:49;;;;;;;13.02;11.82;;;;;;;;;;5018296;28;20083;-65
2022/05/10 06:57:15;;;;;;;13.40;11.77;;;;;;;;;;5023777;28;20562;-65
2022/05/10 06:59:43;;;;;;;11.68;10.57;;;;;;;;;;5022879;28;20117;-65
2022/05/10 07:02:09;;;;;;;12.20;10.70;;;;;;;;;;5019108;28;20054;-65
2022/05/10 07:04:36;;;;;;;11.95;10.85;;;;;;;;;;5022953;28;20153;-64
2022/05/10 07:07:04;;;;;;;12.82;11.15;;;;;;;;;;5025519;28;20514;-71
2022/05/10 07:09:30;;;;;;;12.45;9.85;;;;;;;;;;5002417;28;20046;-71
2022/05/10 07:11:59;;;;;;;10.07;8.80;;;;;;;;;;5021263;28;20042;-74
2022/05/10 07:14:25;;;;;;;9.55;8.65;;;;;;;;;;5024016;28;20056;-72
2022/05/10 07:16:52;;;;;;;11.70;9.70;;;;;;;;;;5024164;28;20041;-71
2022/05/10 07:19:19;;;;;;;10.05;9.10;;;;;;;;;;5017264;28;20056;-70
2022/05/10 07:21:48;;;;;;;10.55;9.52;;;;;;;;;;5021229;28;20045;-72
2022/05/10 07:24:16;;;;;;;13.25;9.52;;;;;;;;;;5019321;28;20068;-70
2022/05/10 07:26:45;;;;;;;11.88;10.60;;;;;;;;;;5024376;28;20050;-68
2022/05/10 07:29:12;;;;;;;11.10;9.13;;;;;;;;;;5020317;28;20505;-67
2022/05/10 07:31:39;;;;;;;10.18;8.95;;;;;;;;;;5018005;28;20054;-68
2022/05/10 07:34:05;;;;;;;9.50;8.50;;;;;;;;;;5025503;28;20472;-69
2022/05/10 07:36:35;;;;;;;11.13;8.77;;;;;;;;;;5017779;28;20050;-68
2022/05/10 07:39:10;;;;;;;8.48;7.60;;;;;;;;;;5019377;28;20293;-66
2022/05/10 07:41:38;;;;;;;7.85;6.88;;;;;;;;;;5024599;28;20152;-75
2022/05/10 07:44:05;;;;;;;8.10;7.40;;;;;;;;;;5008061;28;20125;-68
2022/05/10 07:46:32;;;;;;;7.85;7.05;;;;;;;;;;5022590;28;20047;-65
2022/05/10 07:48:59;;;;;;;7.93;6.90;;;;;;;;;;5018207;28;20097;-66
2022/05/10 07:51:26;;;;;;;9.65;6.20;;;;;;;;;;5019929;28;20049;-70
2022/05/10 07:53:52;;;;;;;7.45;6.13;;;;;;;;;;5019528;28;20042;-74
2022/05/10 07:56:19;;;;;;;7.90;5.90;;;;;;;;;;5000473;28;20053;-70
2022/05/10 07:58:55;;;;;;;7.00;5.85;;;;;;;;;;5020090;28;20055;-69
2022/05/10 08:01:23;;;;;;;7.40;6.15;;;;;;;;;;5021555;28;20135;-70
2022/05/10 08:03:50;;;;;;;8.40;7.07;;;;;;;;;;5017139;28;20513;-70
2022/05/10 08:06:17;;;;;;;7.45;6.43;;;;;;;;;;5020032;28;20056;-71
2022/05/10 08:08:44;;;;;;;9.52;5.90;;;;;;;;;;5016046;28;20050;-70
2022/05/10 08:11:11;;;;;;;5.60;5.05;;;;;;;;;;5021201;28;20063;-69
2022/05/10 08:13:37;;;;;;;11.20;5.28;;;;;;;;;;5000395;28;20069;-70
2022/05/10 08:16:05;;;;;;;7.35;6.53;;;;;;;;;;5018081;28;20389;-69
2022/05/10 08:18:31;;;;;;;6.53;5.90;;;;;;;;;;5000179;28;20485;-70
2022/05/10 08:20:58;;;;;;;7.47;6.28;;;;;;;;;;5001734;28;20048;-69
2022/05/10 08:23:29;;;;;;;7.88;6.32;;;;;;;;;;5000244;28;20050;-69
2022/05/10 08:25:57;;;;;;;7.63;6.80;;;;;;;;;;5004103;28;20041;-69
2022/05/10 08:28:25;;;;;;;6.70;6.00;;;;;;;;;;5002145;28;20053;-69
2022/05/10 08:30:52;;;;;;;7.97;6.80;;;;;;;;;;5004876;28;20056;-69
2022/05/10 08:33:32;;;;;;;11.18;6.10;;;;;;;;;;5020157;28;20046;-70
2022/05/10 08:35:59;;;;;;;6.38;5.78;;;;;;;;;;5032902;28;20057;-70
2022/05/10 08:38:28;;;;;;;6.90;5.88;;;;;;;;;;5019265;28;20045;-69
2022/05/10 08:41:22;;;;;;;6.57;5.97;;;;;;;;;;5017321;28;20053;-70
2022/05/10 08:44:16;;;;;;;7.65;6.20;;;;;;;;;;5001938;28;20061;-70
2022/05/10 08:46:45;;;;;;;6.85;5.88;;;;;;;;;;5012626;28;20054;-69
2022/05/10 08:49:34;;;;;;;8.95;6.07;;;;;;;;;;5016429;28;20081;-69
2022/05/10 08:52:01;;;;;;;7.88;6.07;;;;;;;;;;5025526;28;20050;-69
2022/05/10 08:54:29;;;;;;;5.70;5.10;;;;;;;;;;5017879;28;20056;-70
2022/05/10 08:56:58;;;;;;;5.97;5.47;;;;;;;;;;5000451;28;20358;-70
2022/05/10 08:59:40;;;;;;;7.68;6.00;;;;;;;;;;5017787;28;20065;-70
2022/05/10 09:02:19;;;;;;;5.93;5.35;;;;;;;;;;5020096;28;20104;-67
2022/05/10 09:04:53;;;;;;;8.45;6.20;;;;;;;;;;4999229;28;20045;-69
2022/05/10 09:07:35;;;;;;;7.63;5.97;;;;;;;;;;5017074;28;20045;-67
2022/05/10 09:10:20;;;;;;;8.13;5.18;;;;;;;;;;5018575;28;20046;-68
2022/05/10 09:13:01;;;;;;;8.25;5.28;;;;;;;;;;5020017;28;20057;-69
2022/05/10 09:15:35;;;;;;;5.90;5.40;;;;;;;;;;5000974;28;20050;-69
2022/05/10 09:18:15;;;;;;;6.22;5.32;;;;;;;;;;5017722;28;20136;-69
2022/05/10 09:20:49;;;;;;;5.22;4.72;;;;;;;;;;5017799;28;20496;-71
2022/05/10 09:23:26;;;;;;;7.35;5.38;;;;;;;;;;5013255;28;20419;-66
2022/05/10 09:25:55;;;;;;;6.20;5.60;;;;;;;;;;5022896;23;20042;-68
2022/05/10 09:28:38;;;;;;;8.07;5.28;;;;;;;;;;5018373;28;20093;-67
2022/05/10 09:34:47;;;;;;;5.35;4.18;;;;;;;;;;5017659;28;20562;-67
2022/05/10 09:37:22;;;;;;;6.47;4.05;;;;;;;;;;5020300;28;20120;-67
2022/05/10 09:39:57;;;;;;;4.97;4.10;;;;;;;;;;5038956;28;20054;-67
2022/05/10 09:42:29;;;;;;;8.63;4.55;;;;;;;;;;5021328;28;20397;-67
2022/05/10 09:45:07;;;;;;;4.10;3.80;;;;;;;;;;5019639;28;20045;-67
2022/05/10 09:47:34;;;;;;;6.88;4.40;;;;;;;;;;5021120;28;20053;-67
2022/05/10 09:50:12;;;;;;;5.10;4.55;;;;;;;;;;5012276;28;20445;-67
2022/05/10 09:52:39;;;;;;;4.60;4.05;;;;;;;;;;5006577;28;20567;-67
2022/05/10 09:55:09;;;;;;;4.50;4.13;;;;;;;;;;5022193;28;20053;-67
2022/05/10 09:57:38;;;;;;;4.15;3.75;;;;;;;;;;5000769;28;20057;-67
2022/05/10 10:00:08;;;;;;;5.00;3.63;;;;;;;;;;5002223;28;20046;-67
2022/05/10 10:02:38;;;;;;;3.85;3.45;;;;;;;;;;5001601;28;20058;-67
2022/05/10 10:05:21;;;;;;;5.18;3.45;;;;;;;;;;4995780;28;20054;-67
2022/05/10 10:07:50;;;;;;;6.30;4.72;;;;;;;;;;4992079;28;20057;-67
2022/05/10 10:10:37;;;;;;;4.35;3.95;;;;;;;;;;5012768;28;20176;-67
2022/05/10 10:13:23;;;;;;;3.55;3.25;;;;;;;;;;5019551;28;20067;-67
2022/05/10 10:15:49;;;;;;;4.63;3.83;;;;;;;;;;5020133;28;20046;-67
2022/05/10 10:18:47;;;;;;;5.90;4.00;;;;;;;;;;5021745;28;20045;-67
2022/05/10 10:21:39;;;;;;;5.00;4.20;;;;;;;;;;5022012;28;20244;-66
2022/05/10 10:24:06;;;;;;;5.72;4.25;;;;;;;;;;5022294;28;20049;-69
2022/05/10 10:26:56;;;;;;;4.15;3.83;;;;;;;;;;5020986;28;20067;-76
2022/05/10 10:29:36;;;;;;;3.40;3.10;;;;;;;;;;5022185;28;20049;-74
2022/05/10 10:32:15;;;;;;;3.42;3.13;;;;;;;;;;5008946;28;20049;-63
2022/05/10 10:34:55;;;;;;;3.95;3.60;;;;;;;;;;5036067;28;20045;-65
2022/05/10 10:37:32;;;;;;;5.35;3.22;;;;;;;;;;5042547;28;20053;-65
2022/05/10 10:40:19;;;;;;;3.80;3.50;;;;;;;;;;5039323;28;20103;-64
2022/05/10 10:42:50;;;;;;;6.60;3.92;;;;;;;;;;5041795;28;20053;-65
2022/05/10 10:45:17;;;;;;;5.80;3.67;;;;;;;;;;5023735;28;20108;-66
2022/05/10 10:47:53;;;;;;;4.28;3.88;;;;;;;;;;5038906;28;20496;-65
2022/05/10 10:50:28;;;;;;;4.97;4.28;;;;;;;;;;5040290;28;20055;-65
2022/05/10 10:52:57;;;;;;;3.88;3.58;;;;;;;;;;5039347;28;20147;-66
2022/05/10 10:55:47;;;;;;;6.32;3.80;;;;;;;;;;5038205;28;20167;-66
2022/05/10 10:58:33;;;;;;;4.18;3.83;;;;;;;;;;5045605;28;20052;-65
2022/05/10 11:00:59;;;;;;;4.05;3.65;;;;;;;;;;5043192;28;20045;-66
2022/05/10 11:04:04;;;;;;;5.85;3.10;;;;;;;;;;5044195;28;20059;-72
2022/05/10 11:06:41;;;;;;;3.70;3.40;;;;;;;;;;5010255;28;20052;-73
2022/05/10 11:09:35;;;;;;;3.65;3.35;;;;;;;;;;5025166;28;20049;-74
2022/05/10 11:12:34;;;;;;;4.28;3.40;;;;;;;;;;5040949;28;20065;-74
2022/05/10 11:15:19;;;;;;;3.80;3.50;;;;;;;;;;5028994;28;20049;-72
2022/05/10 11:18:28;;;;;;;4.40;3.58;;;;;;;;;;5040681;28;20077;-72
2022/05/10 11:21:01;;;;;;;4.90;3.63;;;;;;;;;;5023167;28;20127;-72
2022/05/10 11:23:39;;;;;;;4.18;3.42;;;;;;;;;;5037740;28;20057;-74
2022/05/10 11:26:18;;;;;;;4.65;3.47;;;;;;;;;;5132345;22;20128;-76
2022/05/10 11:29:23;;;;;;;6.07;3.70;;;;;;;;;;5022563;28;20053;-73
2022/05/10 11:31:52;;;;;;;3.97;3.03;;;;;;;;;;4984513;28;20076;-73
2022/05/10 11:34:42;;;;;;;3.95;3.55;;;;;;;;;;5019386;28;20050;-71
2022/05/10 11:37:11;;;;;;;5.10;3.67;;;;;;;;;;5018141;28;20053;-74
2022/05/10 11:40:24;;;;;;;3.63;3.30;;;;;;;;;;5001969;28;20058;-73
2022/05/10 11:43:10;;;;;;;;;;;;;;;;;;5003756;28;20062;-74
2022/05/10 11:46:12;;;;;;;4.20;3.30;;;;;;;;;;5001229;28;20016;-73
2022/05/10 11:49:09;;;;;;;3.50;3.20;;;;;;;;;;5017453;28;20487;-73
2022/05/10 11:51:42;;;;;;;3.78;3.47;;;;;;;;;;5016982;28;20048;-74
2022/05/10 11:54:27;;;;;;;3.63;2.83;;;;;;;;;;5017357;28;20050;-70
2022/05/10 11:56:54;;;;;;;3.30;3.03;;;;;;;;;;5018529;28;20252;-66
2022/05/10 11:59:32;;;;;;;6.97;3.45;;;;;;;;;;5002714;28;20041;-66
2022/05/10 12:02:01;;;;;;;3.60;3.30;;;;;;;;;;5013731;28;20588;-66
2022/05/10 12:04:36;;;;;;;3.10;2.90;;;;;;;;;;5019350;28;20519;-66
2022/05/10 12:07:27;;;;;;;3.67;2.97;;;;;;;;;;5018472;28;20116;-66
2022/05/10 12:09:55;;;;;;;3.92;2.97;;;;;;;;;;5015367;28;20061;-66
2022/05/10 12:12:31;;;;;;;3.60;3.30;;;;;;;;;;5019364;28;20041;-66
2022/05/10 12:24:00;;;;;;;3.55;3.25;;;;;;;;;;5016815;28;21025;-66
2022/05/10 12:26:43;;;;;;;5.32;3.50;;;;;;;;;;5017820;28;20333;-66
2022/05/10 12:29:39;;;;;;;5.00;3.42;;;;;;;;;;5015431;28;20055;-66
2022/05/10 12:32:09;;;;;;;5.50;3.17;;;;;;;;;;4995719;28;20501;-66
2022/05/10 12:34:53;;;;;;;3.22;3.03;;;;;;;;;;5018927;28;20067;-66
2022/05/10 12:37:22;;;;;;;4.95;3.08;;;;;;;;;;5036109;28;20053;-66
2022/05/10 12:39:54;;;;;;;3.67;3.28;;;;;;;;;;5017838;28;20468;-66
2022/05/10 12:42:45;;;;;;;3.75;3.45;;;;;;;;;;5018895;28;20057;-66
2022/05/10 12:45:18;;;;;;;3.30;3.00;;;;;;;;;;5019402;28;20111;-65
2022/05/10 12:47:51;;;;;;;3.50;3.10;;;;;;;;;;5018887;28;20054;-66
2022/05/10 12:50:44;;;;;;;2.97;2.72;;;;;;;;;;5017514;28;20048;-65
2022/05/10 12:53:20;;;;;;;4.80;3.22;;;;;;;;;;5019506;28;20050;-65
2022/05/10 12:55:47;;;;;;;4.13;2.88;;;;;;;;;;5018788;28;20061;-66
2022/05/10 12:58:22;;;;;;;2.63;2.42;;;;;;;;;;4984744;28;20046;-66
2022/05/10 13:00:52;;;;;;;5.53;3.08;;;;;;;;;;5019984;28;20053;-66
2022/05/10 13:03:22;;;;;;;3.22;2.92;;;;;;;;;;5003025;28;20046;-66
2022/05/10 13:06:05;;;;;;;3.70;2.90;;;;;;;;;;5013410;28;20062;-66
2022/05/10 13:08:32;;;;;;;2.70;2.50;;;;;;;;;;5018583;28;20100;-66
2022/05/10 13:11:21;;;;;;;3.45;3.13;;;;;;;;;;5019525;28;20095;-66
2022/05/10 13:13:48;;;;;;;2.53;2.33;;;;;;;;;;4989209;28;20053;-66
2022/05/10 13:16:17;;;;;;;2.42;2.22;;;;;;;;;;5021319;28;20428;-65
2022/05/10 13:18:46;;;;;;;2.75;2.50;;;;;;;;;;5006054;28;20056;-66
2022/05/10 13:21:13;;;;;;;5.10;2.72;;;;;;;;;;5019944;28;20540;-65
2022/05/10 13:23:39;;;;;;;3.47;2.58;;;;;;;;;;5024598;28;20052;-66
2022/05/10 13:26:08;;;;;;;3.97;3.08;;;;;;;;;;5017367;28;20045;-64
2022/05/10 13:28:48;;;;;;;6.13;2.47;;;;;;;;;;5007081;28;20054;-65
2022/05/10 13:31:17;;;;;;;3.17;2.55;;;;;;;;;;5004808;28;20479;-65
2022/05/10 13:33:43;;;;;;;3.08;2.70;;;;;;;;;;5021346;28;20137;-65
2022/05/10 13:36:12;;;;;;;5.65;2.67;;;;;;;;;;5019564;28;20049;-65
2022/05/10 13:38:49;;;;;;;2.88;2.65;;;;;;;;;;5022798;28;20050;-66
2022/05/10 13:41:27;;;;;;;5.75;2.75;;;;;;;;;;5022578;28;20154;-66
2022/05/10 13:43:55;;;;;;;3.90;2.63;;;;;;;;;;5007254;28;20417;-66
2022/05/10 13:46:24;;;;;;;2.70;2.50;;;;;;;;;;5002220;28;20539;-66
2022/05/10 13:48:55;;;;;;;7.40;6.03;;;;;;;;;;5023706;28;20515;-63
2022/05/10 13:51:24;;;;;;;7.75;6.18;;;;;;;;;;5020539;28;20077;-65
2022/05/10 13:54:06;;;;;;;9.27;6.97;;;;;;;;;;5006237;28;20054;-65
2022/05/10 13:56:39;;;;;;;6.70;4.03;;;;;;;;;;5022562;28;20056;-65
2022/05/10 13:59:07;;;;;;;3.15;2.90;;;;;;;;;;5007839;28;20496;-65
2022/05/10 14:01:35;;;;;;;2.72;2.45;;;;;;;;;;5022256;28;20041;-65
2022/05/10 14:04:03;;;;;;;4.78;2.78;;;;;;;;;;5018680;28;20052;-65
2022/05/10 14:06:30;;;;;;;2.95;2.65;;;;;;;;;;5021344;28;20412;-65
2022/05/10 14:08:57;;;;;;;2.90;2.70;;;;;;;;;;5023592;28;20606;-64
2022/05/10 14:11:23;;;;;;;2.95;2.65;;;;;;;;;;5005627;28;20056;-65
2022/05/10 14:13:55;;;;;;;2.92;2.70;;;;;;;;;;5017415;28;20060;-64
2022/05/10 14:16:29;;;;;;;3.60;2.70;;;;;;;;;;5022086;28;20509;-64
2022/05/10 14:18:57;;;;;;;4.55;2.80;;;;;;;;;;5020367;28;20415;-64
2022/05/10 14:21:31;;;;;;;4.60;3.45;;;;;;;;;;5004018;28;20050;-65
2022/05/10 14:23:58;;;;;;;5.65;3.00;;;;;;;;;;5023245;28;20064;-65
2022/05/10 14:26:31;;;;;;;3.30;2.53;;;;;;;;;;5004436;28;20057;-65
2022/05/10 14:29:07;;;;;;;3.47;2.90;;;;;;;;;;5016331;28;20065;-64
2022/05/10 14:31:36;;;;;;;2.90;2.70;;;;;;;;;;5020334;28;20053;-64
2022/05/10 14:34:03;;;;;;;2.85;2.63;;;;;;;;;;5019685;28;20068;-65
2022/05/10 14:36:35;;;;;;;3.10;2.90;;;;;;;;;;5024752;28;20050;-64
2022/05/10 14:39:08;;;;;;;3.53;3.08;;;;;;;;;;5020721;28;20095;-64
2022/05/10 14:41:41;;;;;;;4.32;3.13;;;;;;;;;;4996484;28;20050;-65
2022/05/10 14:44:18;;;;;;;4.05;3.33;;;;;;;;;;5004152;28;20053;-64
2022/05/10 14:46:51;;;;;;;3.08;2.80;;;;;;;;;;5020725;28;20049;-65
2022/05/10 14:49:39;;;;;;;5.55;3.47;;;;;;;;;;5016046;28;20125;-65
2022/05/10 14:52:32;;;;;;;3.78;3.47;;;;;;;;;;5019499;28;20129;-65
2022/05/10 14:55:00;;;;;;;3.75;2.95;;;;;;;;;;5022665;28;20046;-65
2022/05/10 14:57:35;;;;;;;3.45;2.80;;;;;;;;;;5020169;28;20049;-66
2022/05/10 15:00:27;;;;;;;3.13;2.85;;;;;;;;;;4985002;28;20057;-65
2022/05/10 15:03:05;;;;;;;3.95;3.17;;;;;;;;;;5020477;28;20049;-75
2022/05/10 15:05:33;;;;;;;3.13;2.92;;;;;;;;;;5021548;28;20446;-75
2022/05/10 15:07:59;;;;;;;4.95;3.33;;;;;;;;;;5007643;28;20076;-75
2022/05/10 15:10:26;;;;;;;3.35;3.15;;;;;;;;;;5026629;28;20504;-75
2022/05/10 15:13:09;;;;;;;5.40;3.47;;;;;;;;;;5023835;28;20048;-75
2022/05/10 15:15:45;;;;;;;4.32;3.40;;;;;;;;;;5023093;28;20125;-76
2022/05/10 15:20:58;;;;;;;6.75;3.20;;;;;;;;;;5020468;28;20049;-75